Los Angeles, California
Traffic Map
Current Weather Conditions
Los Angeles, California
Clear
Clear
79°
Feels Like: 80°
Wind Chill: 79° Ceiling: Unl
Heat Index: 80° Visibility: 10mi
Dew Point: 61° Wind: 0mph
Humidity: 54% Direction: ° ()
Pressure: 29.72in Gusts: 0mph
Raw Report DataKCQT 170847Z AUTO 00000KT 10SM CLR 26/16 A2972 RMK AO2 SLP059 T02610161 55003
Traffic Incident Summary
Active as of:
Severity:
Category:
InformationThere was an issue retrieving the traffic information for this location. Please try a different location or try again shortly.
Advertisements
Track Severe Weather on mobile